Time;durP1;ratioP1;P1;durP2;ratioP2;P2;SDS_P1;SDS_P2;PMS_P1;PMS_P2;Temp;Humidity;BMP_temperature;BMP_pressure;BME280_temperature;BME280_humidity;BME280_pressure;Samples;Min_cycle;Max_cycle;Signal;HPM_P1;HPM_P2
2023/11/29 00:00:50;;;;;;;24.52;17.90;;;2.10;99.90;;;;;;5051258;28;20281;-70
2023/11/29 00:03:17;;;;;;;20.55;18.17;;;2.00;99.90;;;;;;5038740;28;20230;-68
2023/11/29 00:05:44;;;;;;;26.65;18.42;;;2.10;99.90;;;;;;5041382;28;20220;-71
2023/11/29 00:08:13;;;;;;;24.45;18.60;;;2.10;99.90;;;;;;5039648;28;20261;-71
2023/11/29 00:10:40;;;;;;;24.58;16.90;;;2.10;99.90;;;;;;5045625;28;20241;-69
2023/11/29 00:13:07;;;;;;;19.98;16.77;;;2.10;99.90;;;;;;5036594;28;20225;-71
2023/11/29 00:15:34;;;;;;;22.35;18.02;;;2.20;99.90;;;;;;5045158;28;20250;-68
2023/11/29 00:18:01;;;;;;;21.17;17.33;;;2.30;99.90;;;;;;5047407;28;20208;-72
2023/11/29 00:20:30;;;;;;;24.27;18.63;;;2.30;99.90;;;;;;5040546;28;20645;-72
2023/11/29 00:22:57;;;;;;;22.70;18.23;;;2.20;99.90;;;;;;5045040;28;20291;-68
2023/11/29 00:25:25;;;;;;;27.88;21.20;;;2.20;99.90;;;;;;5046842;28;20265;-70
2023/11/29 00:27:52;;;;;;;28.27;21.30;;;2.20;99.90;;;;;;5047604;28;20205;-72
2023/11/29 00:30:19;;;;;;;23.20;19.23;;;2.20;99.90;;;;;;5054070;28;20239;-69
2023/11/29 00:32:46;;;;;;;24.92;21.77;;;2.20;99.90;;;;;;5053405;28;20242;-70
2023/11/29 00:35:13;;;;;;;28.02;23.60;;;2.20;99.90;;;;;;5052206;28;20253;-68
2023/11/29 00:37:40;;;;;;;26.92;22.25;;;2.20;99.90;;;;;;5040358;28;20303;-69
2023/11/29 00:40:08;;;;;;;29.27;22.83;;;2.20;99.90;;;;;;5051099;28;20557;-71
2023/11/29 00:42:37;;;;;;;31.00;23.10;;;2.30;99.90;;;;;;5050404;28;20225;-70
2023/11/29 00:45:06;;;;;;;28.02;21.50;;;2.30;99.90;;;;;;5049222;28;20215;-70
2023/11/29 00:47:32;;;;;;;28.15;23.58;;;2.40;99.90;;;;;;5039686;28;20195;-71
2023/11/29 00:49:59;;;;;;;31.13;25.55;;;2.40;99.90;;;;;;5048462;28;20208;-69
2023/11/29 00:52:26;;;;;;;31.70;24.25;;;2.40;99.90;;;;;;5039038;28;20204;-73
2023/11/29 00:54:53;;;;;;;32.88;24.90;;;2.30;99.90;;;;;;5052055;28;20238;-70
2023/11/29 00:57:21;;;;;;;32.28;25.40;;;2.30;99.90;;;;;;5040991;28;20236;-70
2023/11/29 00:59:49;;;;;;;31.02;25.42;;;2.30;99.90;;;;;;5040455;28;20239;-70
2023/11/29 01:02:16;;;;;;;31.95;27.05;;;2.20;99.90;;;;;;5045409;28;20656;-72
2023/11/29 01:04:43;;;;;;;38.42;27.50;;;2.20;99.90;;;;;;5044373;28;20219;-72
2023/11/29 01:07:10;;;;;;;34.53;27.48;;;2.20;99.90;;;;;;5038864;28;20204;-70
2023/11/29 01:09:37;;;;;;;36.40;28.10;;;2.20;99.90;;;;;;5049952;28;20277;-72
2023/11/29 01:12:04;;;;;;;34.60;29.60;;;2.20;99.90;;;;;;5051243;28;20268;-69
2023/11/29 01:14:31;;;;;;;38.67;29.75;;;2.30;99.90;;;;;;5047385;28;20220;-68
2023/11/29 01:17:00;;;;;;;35.13;26.98;;;2.30;99.90;;;;;;5046794;28;20238;-70
2023/11/29 01:19:27;;;;;;;34.50;25.80;;;2.20;99.90;;;;;;5044379;28;20216;-71
2023/11/29 01:21:54;;;;;;;31.15;23.67;;;2.30;99.90;;;;;;5053843;28;20247;-68
2023/11/29 01:24:21;;;;;;;35.65;28.73;;;2.30;99.90;;;;;;5051886;28;20278;-70
2023/11/29 01:26:47;;;;;;;35.95;26.80;;;2.30;99.90;;;;;;5038924;28;20764;-69
2023/11/29 01:29:15;;;;;;;35.20;27.75;;;2.30;99.90;;;;;;5044572;28;20249;-68
2023/11/29 01:31:42;;;;;;;30.15;25.75;;;2.30;99.90;;;;;;5048966;28;20671;-72
2023/11/29 01:34:11;;;;;;;28.80;23.58;;;2.40;99.90;;;;;;5053846;28;20228;-68
2023/11/29 01:36:42;;;;;;;31.20;23.10;;;2.50;99.90;;;;;;5044620;28;20258;-68
2023/11/29 01:39:13;;;;;;;31.50;24.58;;;2.50;99.90;;;;;;5052623;28;20204;-67
2023/11/29 01:41:40;;;;;;;32.05;26.58;;;2.50;99.90;;;;;;5045525;28;20226;-69
2023/11/29 01:44:07;;;;;;;30.92;25.60;;;2.50;99.90;;;;;;5035337;28;20698;-70
2023/11/29 01:46:35;;;;;;;32.03;26.27;;;2.50;99.90;;;;;;5050657;28;20203;-70
2023/11/29 01:49:03;;;;;;;32.30;26.50;;;2.50;99.90;;;;;;5039994;28;20342;-70
2023/11/29 01:51:32;;;;;;;31.60;26.00;;;2.50;99.90;;;;;;5046048;28;20656;-68
2023/11/29 01:54:01;;;;;;;31.67;25.05;;;2.40;99.90;;;;;;5045867;28;20319;-71
2023/11/29 01:56:28;;;;;;;29.83;23.88;;;2.40;99.90;;;;;;5046010;28;20282;-70
2023/11/29 01:58:55;;;;;;;31.85;25.25;;;2.50;99.90;;;;;;5051308;28;20657;-68
2023/11/29 02:01:23;;;;;;;27.38;23.90;;;2.50;99.90;;;;;;5052698;28;20219;-68
2023/11/29 02:03:50;;;;;;;29.50;25.02;;;2.50;99.90;;;;;;5050230;28;20615;-70
2023/11/29 02:06:17;;;;;;;27.05;22.42;;;2.50;99.90;;;;;;5045129;28;20200;-68
2023/11/29 02:08:46;;;;;;;27.95;21.70;;;2.50;99.90;;;;;;5046603;28;20625;-70
2023/11/29 02:11:17;;;;;;;26.35;23.30;;;2.50;99.90;;;;;;5053021;28;20199;-68
2023/11/29 02:13:44;;;;;;;29.55;24.85;;;2.50;99.90;;;;;;5044160;28;20644;-70
2023/11/29 02:16:11;;;;;;;27.95;22.98;;;2.40;99.90;;;;;;5044687;28;20235;-70
2023/11/29 02:18:38;;;;;;;31.10;25.58;;;2.50;99.90;;;;;;5043058;28;20253;-69
2023/11/29 02:21:05;;;;;;;25.77;22.85;;;2.50;99.90;;;;;;5044392;28;20204;-70
2023/11/29 02:23:38;;;;;;;28.05;22.10;;;2.50;99.90;;;;;;5042170;28;20255;-70
2023/11/29 02:26:06;;;;;;;23.15;20.65;;;2.70;99.90;;;;;;5037642;28;20285;-70
2023/11/29 02:28:34;;;;;;;29.25;23.58;;;2.70;99.90;;;;;;5050780;28;20611;-67
2023/11/29 02:31:02;;;;;;;26.42;22.27;;;2.70;99.90;;;;;;5043650;28;20239;-69
2023/11/29 02:33:29;;;;;;;24.95;21.85;;;2.60;99.90;;;;;;5037409;28;20247;-71
2023/11/29 02:35:57;;;;;;;29.10;23.38;;;2.70;99.90;;;;;;5045620;28;20200;-71
2023/11/29 02:38:24;;;;;;;23.17;20.77;;;2.60;99.90;;;;;;5041072;28;20208;-71
2023/11/29 02:40:51;;;;;;;23.90;20.10;;;2.70;99.90;;;;;;5050147;28;20239;-71
2023/11/29 02:43:19;;;;;;;23.05;20.52;;;2.70;99.90;;;;;;5052663;28;20263;-69
2023/11/29 02:45:46;;;;;;;24.63;20.63;;;2.60;99.90;;;;;;5038278;28;20220;-70
2023/11/29 02:48:13;;;;;;;23.30;19.27;;;2.50;99.90;;;;;;5048510;28;20236;-70
2023/11/29 02:50:40;;;;;;;21.75;19.52;;;2.50;99.90;;;;;;5042849;28;20361;-69
2023/11/29 02:53:07;;;;;;;23.02;20.55;;;2.40;99.90;;;;;;5052732;28;20204;-66
2023/11/29 02:55:34;;;;;;;23.65;19.23;;;2.50;99.90;;;;;;5043486;28;20303;-69
2023/11/29 02:58:01;;;;;;;22.30;19.85;;;2.50;99.90;;;;;;5043908;28;20239;-68
2023/11/29 03:00:29;;;;;;;25.38;19.48;;;2.40;99.90;;;;;;5041438;28;20266;-68
2023/11/29 03:02:58;;;;;;;29.15;22.73;;;2.40;99.90;;;;;;5041703;28;20340;-67
2023/11/29 03:05:25;;;;;;;27.63;19.70;;;2.40;99.90;;;;;;5041554;28;20224;-70
2023/11/29 03:07:52;;;;;;;26.70;21.65;;;2.30;99.90;;;;;;5045909;28;20258;-71
2023/11/29 03:10:19;;;;;;;30.23;22.10;;;2.30;99.90;;;;;;5043333;28;20208;-67
2023/11/29 03:12:45;;;;;;;27.00;22.67;;;2.30;99.90;;;;;;5047636;28;20236;-69
2023/11/29 03:15:14;;;;;;;27.05;22.17;;;2.20;99.90;;;;;;5050732;28;20228;-71
2023/11/29 03:17:42;;;;;;;29.40;24.40;;;2.30;99.90;;;;;;5041373;28;20215;-67
2023/11/29 03:20:10;;;;;;;30.50;24.08;;;2.20;99.90;;;;;;5040170;28;20199;-71
2023/11/29 03:22:36;;;;;;;26.20;21.92;;;2.20;99.90;;;;;;5036824;28;20258;-71
2023/11/29 03:25:04;;;;;;;31.85;24.92;;;2.20;99.90;;;;;;5041812;28;20630;-67
2023/11/29 03:27:31;;;;;;;35.90;25.15;;;2.20;99.90;;;;;;5045864;28;20722;-71
2023/11/29 03:29:58;;;;;;;33.63;24.17;;;2.20;99.90;;;;;;5039499;28;20636;-66
2023/11/29 03:32:26;;;;;;;32.13;24.25;;;2.20;99.90;;;;;;5044887;28;20197;-69
2023/11/29 03:34:54;;;;;;;28.50;23.48;;;2.20;99.90;;;;;;5042773;28;20252;-70
2023/11/29 03:37:21;;;;;;;27.80;24.13;;;2.20;99.90;;;;;;5049081;28;20211;-70
2023/11/29 03:39:48;;;;;;;31.48;24.85;;;2.20;99.90;;;;;;5039429;28;20629;-69
2023/11/29 03:42:16;;;;;;;26.95;22.00;;;2.30;99.90;;;;;;5052474;28;20220;-69
2023/11/29 03:44:43;;;;;;;33.53;26.27;;;2.30;99.90;;;;;;5049418;28;20256;-70
2023/11/29 03:47:11;;;;;;;29.73;23.98;;;2.30;99.90;;;;;;5044828;28;20280;-72
2023/11/29 03:49:38;;;;;;;35.83;26.75;;;2.40;99.90;;;;;;5043232;28;20348;-72
2023/11/29 03:52:07;;;;;;;32.28;26.48;;;2.40;99.90;;;;;;5051463;28;20654;-70
2023/11/29 03:54:33;;;;;;;29.83;25.23;;;2.40;99.90;;;;;;5045683;28;20269;-70
2023/11/29 03:57:00;;;;;;;27.23;22.85;;;2.50;99.90;;;;;;5039776;28;20204;-70
2023/11/29 03:59:27;;;;;;;35.50;27.63;;;2.60;99.90;;;;;;5034749;28;20255;-69
2023/11/29 04:01:54;;;;;;;34.08;24.98;;;2.70;99.90;;;;;;5051582;28;20244;-69
2023/11/29 04:04:21;;;;;;;29.30;23.77;;;2.70;99.90;;;;;;5047453;28;20232;-69
2023/11/29 04:09:24;;;;;;;29.98;24.67;;;2.70;99.90;;;;;;5045628;28;20214;-84
2023/11/29 04:11:57;;;;;;;25.85;22.67;;;2.50;99.90;;;;;;5027097;28;20208;-84
2023/11/29 04:14:33;;;;;;;27.10;23.60;;;2.70;99.90;;;;;;5027742;28;20200;-84
2023/11/29 04:17:00;;;;;;;30.45;24.73;;;2.70;99.90;;;;;;5037821;28;20189;-85
2023/11/29 04:19:27;;;;;;;33.15;27.40;;;2.50;99.90;;;;;;5033335;28;20223;-84
2023/11/29 04:21:56;;;;;;;34.65;26.25;;;2.70;99.90;;;;;;5060571;28;20188;-85
2023/11/29 04:24:24;;;;;;;29.83;23.48;;;2.60;99.90;;;;;;5060482;28;20185;-85
2023/11/29 04:26:51;;;;;;;34.83;26.92;;;2.60;99.90;;;;;;5038470;28;20213;-84
2023/11/29 04:29:18;;;;;;;28.60;22.80;;;2.70;99.90;;;;;;5031438;28;20209;-84
2023/11/29 04:31:50;;;;;;;31.30;26.15;;;2.80;99.90;;;;;;5019767;28;20202;-84
2023/11/29 04:34:17;;;;;;;28.17;22.90;;;2.70;99.90;;;;;;5014768;28;20213;-85
2023/11/29 04:36:45;;;;;;;30.88;24.17;;;2.90;99.90;;;;;;5027765;28;20206;-85
2023/11/29 04:39:18;;;;;;;41.97;23.75;;;2.90;99.90;;;;;;5029830;28;20467;-84
2023/11/29 04:41:54;;;;;;;28.98;21.55;;;3.00;99.90;;;;;;5029201;28;20198;-84
2023/11/29 04:44:23;;;;;;;33.15;24.38;;;2.80;99.90;;;;;;5030069;28;20216;-83
2023/11/29 04:46:53;;;;;;;32.58;23.15;;;2.70;99.90;;;;;;5035359;28;20205;-84
2023/11/29 04:49:30;;;;;;;31.27;25.52;;;2.50;99.90;;;;;;5029463;28;20203;-85
2023/11/29 04:51:57;;;;;;;33.90;24.60;;;2.60;99.90;;;;;;5034826;28;20194;-84
2023/11/29 04:54:24;;;;;;;29.60;23.90;;;2.80;99.90;;;;;;5024018;28;20236;-84
2023/11/29 04:56:53;;;;;;;32.85;24.90;;;2.70;99.90;;;;;;5033767;28;20208;-83
2023/11/29 04:59:20;;;;;;;27.58;21.65;;;2.60;99.90;;;;;;5035476;28;20261;-84
2023/11/29 05:01:58;;;;;;;29.88;22.73;;;2.60;99.90;;;;;;5041045;28;20187;-82
2023/11/29 05:04:30;;;;;;;27.08;22.17;;;2.70;99.90;;;;;;5043395;28;20201;-83
2023/11/29 05:06:58;;;;;;;27.70;21.95;;;2.70;99.90;;;;;;5039500;28;20292;-83
2023/11/29 05:09:25;;;;;;;25.00;22.30;;;2.70;99.90;;;;;;5030637;28;20219;-84
2023/11/29 05:11:53;;;;;;;28.23;23.17;;;2.70;99.90;;;;;;5016432;28;20219;-84
2023/11/29 05:14:21;;;;;;;25.77;21.30;;;2.90;99.90;;;;;;5028085;28;20448;-84
2023/11/29 05:16:48;;;;;;;30.55;22.83;;;2.90;99.90;;;;;;5026374;28;20464;-84
2023/11/29 05:19:20;;;;;;;24.83;21.30;;;2.80;99.90;;;;;;5023294;28;20231;-84
2023/11/29 05:21:51;;;;;;;24.73;21.20;;;2.90;99.90;;;;;;5015175;28;20985;-84
2023/11/29 05:24:18;;;;;;;25.38;20.27;;;2.90;99.90;;;;;;5021659;28;20230;-84
2023/11/29 05:26:48;;;;;;;26.15;21.90;;;3.00;99.90;;;;;;5016642;28;20198;-84
2023/11/29 05:29:22;;;;;;;29.17;23.02;;;2.80;99.90;;;;;;5012758;28;20212;-84
2023/11/29 05:31:54;;;;;;;27.77;22.15;;;2.80;99.90;;;;;;5025414;28;20196;-83
2023/11/29 05:34:22;;;;;;;27.90;21.65;;;2.80;99.90;;;;;;5018074;28;20260;-84
2023/11/29 05:36:49;;;;;;;26.88;21.52;;;2.70;99.90;;;;;;5022125;28;20212;-83
2023/11/29 05:39:16;;;;;;;25.00;21.52;;;2.70;99.90;;;;;;5026793;28;20210;-83
2023/11/29 05:41:43;;;;;;;27.25;22.05;;;2.80;99.90;;;;;;5024743;28;20197;-85
2023/11/29 05:44:10;;;;;;;30.60;22.58;;;2.80;99.90;;;;;;5039248;28;20213;-86
2023/11/29 05:46:39;;;;;;;24.85;21.55;;;2.80;99.90;;;;;;5030095;28;20209;-86
2023/11/29 05:49:06;;;;;;;27.65;22.30;;;2.80;99.90;;;;;;5024600;28;20626;-85
2023/11/29 05:51:35;;;;;;;28.85;23.90;;;2.80;99.90;;;;;;5024829;28;20200;-84
2023/11/29 05:54:07;;;;;;;24.83;21.30;;;2.90;99.90;;;;;;5020133;28;20206;-84
2023/11/29 05:56:51;;;;;;;24.92;20.25;;;2.80;99.90;;;;;;5023577;28;20223;-88
2023/11/29 05:59:18;;;;;;;26.90;22.40;;;3.00;99.90;;;;;;5015370;28;20673;-88
2023/11/29 06:01:48;;;;;;;28.95;22.83;;;2.90;99.90;;;;;;5027741;28;20200;-86
2023/11/29 06:06:50;;;;;;;27.23;22.80;;;2.90;99.90;;;;;;5749368;23;20213;-81
2023/11/29 06:09:17;;;;;;;24.40;20.67;;;2.90;99.90;;;;;;5006134;28;20229;-84
2023/11/29 06:11:45;;;;;;;24.77;21.42;;;2.80;99.90;;;;;;5011812;28;20455;-85
2023/11/29 06:14:13;;;;;;;28.30;22.02;;;2.90;99.90;;;;;;5011066;28;20196;-84
2023/11/29 06:16:40;;;;;;;29.75;22.55;;;2.90;99.90;;;;;;5010436;28;20197;-83
2023/11/29 06:19:09;;;;;;;26.15;21.30;;;2.90;99.90;;;;;;5010209;28;20206;-83
2023/11/29 06:21:36;;;;;;;26.48;21.60;;;2.80;99.90;;;;;;5009259;28;20199;-83
2023/11/29 06:24:04;;;;;;;26.67;22.70;;;2.90;99.90;;;;;;5012605;28;20227;-83
2023/11/29 06:26:33;;;;;;;26.13;22.80;;;3.00;99.90;;;;;;5018966;28;20190;-83
2023/11/29 06:29:05;;;;;;;24.20;20.10;;;3.00;99.90;;;;;;5008839;28;20243;-84
2023/11/29 06:31:32;;;;;;;20.80;18.15;;;2.90;99.90;;;;;;5015673;28;20266;-84
2023/11/29 06:33:59;;;;;;;24.25;20.33;;;3.10;99.90;;;;;;5013083;28;20213;-85
2023/11/29 06:36:27;;;;;;;24.70;20.42;;;3.10;99.90;;;;;;5003089;28;20210;-83
2023/11/29 06:38:55;;;;;;;25.50;21.70;;;3.20;99.90;;;;;;5001970;28;20226;-85
2023/11/29 06:41:22;;;;;;;23.33;19.92;;;3.20;99.90;;;;;;5014049;28;20462;-84
2023/11/29 06:43:49;;;;;;;23.83;20.63;;;3.20;99.90;;;;;;4997245;28;20927;-84
2023/11/29 06:46:17;;;;;;;25.33;20.20;;;3.30;99.90;;;;;;5002561;28;20217;-84
2023/11/29 06:48:44;;;;;;;27.92;21.75;;;3.30;99.90;;;;;;5008303;28;20222;-85
2023/11/29 06:51:12;;;;;;;25.38;21.95;;;3.20;99.90;;;;;;5007994;28;20212;-85
2023/11/29 06:53:40;;;;;;;23.05;20.10;;;3.10;99.90;;;;;;5005928;28;20646;-84
2023/11/29 06:56:09;;;;;;;27.02;21.90;;;3.20;99.90;;;;;;5010001;28;20201;-84
2023/11/29 06:58:37;;;;;;;25.48;22.00;;;3.10;99.90;;;;;;5020644;28;20200;-83
2023/11/29 07:01:06;;;;;;;25.40;21.02;;;3.10;99.90;;;;;;5016964;28;20316;-83
2023/11/29 07:03:33;;;;;;;22.70;19.75;;;3.20;99.90;;;;;;5016497;28;20228;-83
2023/11/29 07:05:59;;;;;;;21.90;19.08;;;3.10;99.90;;;;;;5006783;28;20205;-84
2023/11/29 07:08:30;;;;;;;23.23;19.45;;;3.20;99.90;;;;;;5005232;28;20284;-84
2023/11/29 07:11:01;;;;;;;27.40;21.92;;;3.20;99.90;;;;;;5001429;28;20682;-85
2023/11/29 07:13:28;;;;;;;23.33;20.02;;;3.10;99.90;;;;;;4999142;28;20201;-85
2023/11/29 07:15:56;;;;;;;25.08;20.33;;;3.10;99.90;;;;;;5007882;28;20200;-85
2023/11/29 07:18:24;;;;;;;29.50;19.88;;;3.10;99.90;;;;;;5008387;28;20231;-84
2023/11/29 07:20:51;;;;;;;19.88;16.95;;;3.20;99.90;;;;;;5008456;28;20202;-85
2023/11/29 07:23:21;;;;;;;24.05;19.80;;;3.20;99.90;;;;;;5014609;28;20284;-84
2023/11/29 07:25:48;;;;;;;22.90;18.75;;;3.20;99.90;;;;;;5009542;28;20213;-85
2023/11/29 07:28:16;;;;;;;21.63;17.75;;;3.20;99.90;;;;;;5002203;28;20245;-84
2023/11/29 07:30:44;;;;;;;21.40;18.17;;;3.30;99.90;;;;;;5004695;28;20198;-83
2023/11/29 07:33:11;;;;;;;20.40;18.20;;;3.20;99.90;;;;;;5009625;28;20221;-85
2023/11/29 07:35:38;;;;;;;23.15;18.08;;;3.40;99.90;;;;;;5024136;28;20206;-84
2023/11/29 07:38:05;;;;;;;28.08;18.52;;;3.40;99.90;;;;;;5016111;28;20213;-83
2023/11/29 07:40:32;;;;;;;20.55;17.00;;;3.50;99.90;;;;;;5012150;28;20213;-85
2023/11/29 07:43:00;;;;;;;21.02;17.98;;;3.70;99.90;;;;;;5004913;28;20281;-84
2023/11/29 07:45:28;;;;;;;23.13;20.70;;;3.90;99.90;;;;;;5016380;28;20206;-84
2023/11/29 07:47:55;;;;;;;19.77;16.58;;;4.20;99.90;;;;;;5001193;28;20284;-84
2023/11/29 07:50:22;;;;;;;16.58;14.55;;;4.50;99.90;;;;;;4992005;28;20210;-85
2023/11/29 07:52:49;;;;;;;16.88;15.27;;;4.50;99.90;;;;;;5006426;28;20201;-84
2023/11/29 07:55:16;;;;;;;17.13;15.43;;;4.50;99.90;;;;;;4999187;28;20206;-84
2023/11/29 07:57:43;;;;;;;16.65;15.00;;;4.70;99.90;;;;;;5017817;28;20223;-84
2023/11/29 08:00:12;;;;;;;19.23;15.50;;;4.50;99.90;;;;;;5002044;28;20207;-83
2023/11/29 08:02:41;;;;;;;20.45;16.00;;;4.40;99.90;;;;;;5001984;28;20265;-84
2023/11/29 08:05:09;;;;;;;19.35;16.60;;;4.40;99.90;;;;;;5007943;28;20312;-85
2023/11/29 08:07:36;;;;;;;23.50;18.08;;;4.30;99.90;;;;;;5002797;28;20233;-84
2023/11/29 08:10:03;;;;;;;21.02;18.67;;;4.30;99.90;;;;;;5003362;28;20220;-83
2023/11/29 08:12:30;;;;;;;20.45;15.63;;;4.30;99.90;;;;;;5012962;28;20194;-85
2023/11/29 08:14:57;;;;;;;23.20;18.77;;;4.30;99.90;;;;;;5005312;28;20187;-83
2023/11/29 08:17:24;;;;;;;17.35;15.52;;;4.20;99.90;;;;;;5023401;28;20486;-84
2023/11/29 08:19:53;;;;;;;19.20;17.20;;;4.20;99.90;;;;;;5023432;28;20186;-84
2023/11/29 08:22:20;;;;;;;25.20;19.02;;;4.00;99.90;;;;;;5011094;28;20239;-84
2023/11/29 08:24:48;;;;;;;17.58;15.68;;;4.10;99.90;;;;;;4998933;28;20237;-84
2023/11/29 08:27:15;;;;;;;21.50;18.40;;;3.90;99.90;;;;;;5006087;28;20256;-85
2023/11/29 08:29:43;;;;;;;23.67;21.05;;;3.80;99.90;;;;;;5011937;28;20203;-84
2023/11/29 08:32:10;;;;;;;23.25;19.48;;;3.90;99.90;;;;;;4993425;28;20242;-84
2023/11/29 08:34:37;;;;;;;26.33;21.90;;;3.80;99.90;;;;;;5013291;28;20221;-83
2023/11/29 08:37:05;;;;;;;24.45;20.80;;;3.60;99.90;;;;;;5016477;28;20197;-82
2023/11/29 08:39:32;;;;;;;25.20;19.58;;;3.60;99.90;;;;;;5005030;28;20262;-85
2023/11/29 08:41:59;;;;;;;21.48;17.70;;;3.70;99.90;;;;;;5010774;28;20251;-84
2023/11/29 08:44:26;;;;;;;24.50;21.77;;;3.60;99.90;;;;;;5008849;28;20222;-84
2023/11/29 08:46:54;;;;;;;26.70;21.70;;;3.70;99.90;;;;;;5016032;28;20269;-85
2023/11/29 08:49:21;;;;;;;26.67;21.02;;;3.60;99.90;;;;;;5018149;28;20309;-85
2023/11/29 08:51:48;;;;;;;23.73;19.80;;;3.50;99.90;;;;;;5010454;28;20190;-85
2023/11/29 08:54:16;;;;;;;26.00;20.75;;;3.30;99.90;;;;;;5011010;28;20214;-86
2023/11/29 08:56:45;;;;;;;26.87;20.70;;;3.50;99.90;;;;;;5024603;28;20204;-85
2023/11/29 08:59:12;;;;;;;30.95;23.38;;;3.60;99.90;;;;;;5011973;28;20469;-85
2023/11/29 09:01:40;;;;;;;30.30;23.92;;;3.40;99.90;;;;;;5011477;28;20221;-86
2023/11/29 09:04:07;;;;;;;29.63;22.50;;;3.40;99.90;;;;;;5011467;28;20226;-86
2023/11/29 09:06:34;;;;;;;26.63;22.17;;;3.50;99.90;;;;;;5013531;28;20229;-83
2023/11/29 09:09:01;;;;;;;28.50;22.65;;;3.70;99.90;;;;;;4993570;28;20240;-84
2023/11/29 09:11:29;;;;;;;26.02;21.25;;;3.50;99.90;;;;;;5008749;28;20209;-85
2023/11/29 09:13:56;;;;;;;28.77;22.70;;;3.40;99.90;;;;;;5012856;28;20273;-86
2023/11/29 09:16:23;;;;;;;29.30;22.60;;;3.50;99.90;;;;;;5006389;28;20445;-83
2023/11/29 09:18:51;;;;;;;26.48;22.10;;;3.60;99.90;;;;;;5012067;28;20222;-85
2023/11/29 09:21:17;;;;;;;30.55;24.98;;;3.60;99.90;;;;;;5012125;28;20190;-82
2023/11/29 09:23:45;;;;;;;27.75;23.73;;;3.40;99.90;;;;;;5012928;28;20221;-83
2023/11/29 09:26:13;;;;;;;34.90;26.10;;;3.30;99.90;;;;;;5008660;28;20182;-83
2023/11/29 09:28:41;;;;;;;31.40;24.70;;;3.40;99.90;;;;;;5010398;28;20226;-85
2023/11/29 09:31:11;;;;;;;40.83;29.58;;;3.20;99.90;;;;;;5023021;28;20210;-84
2023/11/29 09:33:38;;;;;;;35.53;26.67;;;3.20;99.90;;;;;;5010402;28;20198;-83
2023/11/29 09:36:06;;;;;;;39.38;26.35;;;3.10;99.90;;;;;;5013610;28;20221;-85
2023/11/29 09:38:33;;;;;;;43.58;27.25;;;3.00;99.90;;;;;;5019476;28;20205;-82
2023/11/29 09:41:00;;;;;;;37.80;27.35;;;3.00;99.90;;;;;;5018805;28;20195;-83
2023/11/29 09:43:28;;;;;;;24.83;21.50;;;3.00;99.90;;;;;;5009479;28;20208;-83
2023/11/29 09:45:57;;;;;;;36.03;25.65;;;3.10;99.90;;;;;;5005362;28;20242;-84
2023/11/29 09:48:24;;;;;;;38.40;27.95;;;3.20;99.90;;;;;;5009118;28;20488;-84
2023/11/29 09:50:52;;;;;;;39.75;28.40;;;3.20;99.90;;;;;;5018697;28;20206;-86
2023/11/29 09:53:19;;;;;;;36.58;24.83;;;3.20;99.90;;;;;;5019043;28;20186;-84
2023/11/29 09:55:46;;;;;;;31.67;24.15;;;3.30;99.90;;;;;;5000639;28;20230;-84
2023/11/29 09:58:13;;;;;;;21.95;18.00;;;3.30;99.90;;;;;;5000164;28;20217;-85
2023/11/29 10:00:40;;;;;;;22.92;18.27;;;3.30;99.90;;;;;;5006054;28;20205;-84
2023/11/29 10:03:15;;;;;;;18.00;15.20;;;3.40;99.90;;;;;;4995509;28;20278;-85
2023/11/29 10:05:46;;;;;;;19.20;14.93;;;3.60;99.90;;;;;;5007238;28;20217;-84
2023/11/29 10:11:02;;;;;;;24.60;15.30;;;3.80;99.90;;;;;;5027164;28;20254;-82
2023/11/29 10:13:39;;;;;;;17.05;13.90;;;4.10;99.90;;;;;;5026663;28;20205;-82
2023/11/29 10:16:11;;;;;;;18.15;14.52;;;4.20;99.90;;;;;;5021234;28;20206;-81
2023/11/29 10:18:40;;;;;;;18.52;14.43;;;4.30;99.90;;;;;;5027672;28;20252;-81
2023/11/29 10:21:08;;;;;;;15.18;12.60;;;4.40;99.90;;;;;;5034058;28;20202;-82
2023/11/29 10:23:36;;;;;;;38.58;16.95;;;4.40;99.90;;;;;;5022432;28;20202;-80
2023/11/29 10:26:13;;;;;;;17.80;14.25;;;4.40;99.90;;;;;;5028384;28;20214;-82
2023/11/29 10:43:59;;;;;;;16.70;9.95;;;4.50;99.90;;;;;;5013898;28;20208;-82
2023/11/29 10:53:17;;;;;;;13.93;11.95;;;4.30;99.90;;;;;;5035102;28;20865;-81
2023/11/29 10:55:45;;;;;;;17.10;13.18;;;4.30;99.90;;;;;;5029993;28;20217;-80
2023/11/29 10:58:25;;;;;;;17.48;12.52;;;4.30;99.90;;;;;;5025994;28;20240;-83
2023/11/29 11:00:54;;;;;;;15.23;12.15;;;4.20;99.90;;;;;;5013505;28;20211;-80
2023/11/29 11:03:41;;;;;;;17.30;13.15;;;4.20;99.90;;;;;;5029955;28;20178;-81
2023/11/29 11:06:41;;;;;;;18.17;12.20;;;4.30;99.90;;;;;;5026579;28;20225;-82
2023/11/29 11:09:36;;;;;;;17.90;12.40;;;4.10;99.90;;;;;;4981250;28;20235;-83
2023/11/29 11:12:08;;;;;;;15.55;12.10;;;4.00;99.90;;;;;;5025601;28;20236;-81
2023/11/29 11:21:33;;;;;;;16.20;11.93;;;3.80;99.90;;;;;;5014479;28;20214;-81
2023/11/29 11:24:08;;;;;;;14.52;11.02;;;3.90;99.90;;;;;;5035743;28;20467;-82
2023/11/29 11:26:37;;;;;;;13.63;9.93;;;3.80;99.90;;;;;;5011340;28;20312;-79
2023/11/29 11:36:00;;;;;;;11.27;8.32;;;3.80;99.90;;;;;;5010914;28;20239;-78
2023/11/29 11:38:31;;;;;;;12.95;9.50;;;3.50;99.90;;;;;;5026091;28;20237;-78
2023/11/29 11:41:08;;;;;;;14.25;9.10;;;3.40;99.90;;;;;;5014750;28;20221;-78
2023/11/29 11:43:37;;;;;;;15.18;10.23;;;3.30;99.90;;;;;;5010203;28;20232;-79
2023/11/29 11:46:06;;;;;;;12.10;8.73;;;3.20;99.90;;;;;;5015068;28;20225;-80
2023/11/29 11:48:33;;;;;;;15.68;9.70;;;3.20;99.90;;;;;;5031127;28;20233;-80
2023/11/29 11:51:01;;;;;;;14.45;9.27;;;3.30;99.90;;;;;;5024382;28;20208;-80
2023/11/29 11:53:28;;;;;;;13.27;9.25;;;3.30;99.90;;;;;;5021249;28;20236;-80
2023/11/29 11:55:55;;;;;;;15.02;11.18;;;3.30;99.90;;;;;;5013720;28;20230;-81
2023/11/29 11:58:41;;;;;;;14.60;9.90;;;3.20;99.90;;;;;;5020318;28;20229;-79
2023/11/29 12:01:16;;;;;;;13.15;8.63;;;3.10;99.90;;;;;;5008399;28;20214;-79
2023/11/29 12:03:43;;;;;;;17.45;11.30;;;3.10;99.90;;;;;;5004608;28;20276;-79
2023/11/29 12:06:13;;;;;;;10.77;8.85;;;3.10;99.90;;;;;;5007063;28;20329;-79
2023/11/29 12:08:40;;;;;;;10.98;8.40;;;3.10;99.90;;;;;;5016095;28;20234;-78
2023/11/29 12:11:09;;;;;;;9.75;7.72;;;3.10;99.90;;;;;;5008709;28;20358;-78
2023/11/29 12:13:37;;;;;;;10.30;7.72;;;3.00;99.90;;;;;;5016007;28;20666;-78
2023/11/29 12:16:14;;;;;;;9.00;7.93;;;3.00;99.90;;;;;;5007018;28;20238;-78
2023/11/29 12:18:41;;;;;;;12.52;9.73;;;2.90;99.90;;;;;;5026848;28;20495;-79
2023/11/29 12:21:10;;;;;;;12.50;8.77;;;2.90;99.90;;;;;;5016433;28;20264;-79
2023/11/29 12:23:41;;;;;;;10.90;8.38;;;3.00;99.90;;;;;;5011386;28;20208;-78
2023/11/29 12:26:18;;;;;;;13.55;8.10;;;2.90;99.90;;;;;;5010377;28;20222;-77
2023/11/29 12:28:45;;;;;;;14.93;9.45;;;2.90;99.90;;;;;;5024222;28;20272;-77
2023/11/29 12:31:16;;;;;;;12.27;8.00;;;2.90;99.90;;;;;;5025483;28;20229;-78
2023/11/29 12:33:44;;;;;;;16.83;9.15;;;2.90;99.90;;;;;;5015924;28;20674;-78
2023/11/29 12:36:11;;;;;;;10.38;7.32;;;3.00;99.90;;;;;;5023364;28;20452;-78
2023/11/29 12:38:54;;;;;;;10.75;8.98;;;3.10;99.90;;;;;;5023636;28;20293;-78
2023/11/29 12:41:32;;;;;;;11.15;8.90;;;3.10;99.90;;;;;;5021198;28;20207;-79
2023/11/29 12:44:01;;;;;;;10.82;8.75;;;3.00;99.90;;;;;;5018539;28;20212;-78
2023/11/29 12:46:30;;;;;;;10.40;7.95;;;3.10;99.90;;;;;;5023233;28;20225;-77
2023/11/29 12:49:14;;;;;;;13.35;9.57;;;2.70;99.90;;;;;;5021130;28;20654;-79
2023/11/29 12:51:41;;;;;;;12.50;8.65;;;2.90;99.90;;;;;;5011747;28;20206;-79
2023/11/29 12:54:08;;;;;;;11.60;8.40;;;2.90;99.90;;;;;;5019015;28;20369;-79
2023/11/29 12:56:35;;;;;;;12.52;8.50;;;2.90;99.90;;;;;;5016658;28;20225;-78
2023/11/29 12:59:02;;;;;;;10.15;8.60;;;2.90;99.90;;;;;;5025931;28;20248;-80
2023/11/29 13:01:35;;;;;;;10.40;7.65;;;2.90;99.90;;;;;;5023708;28;20269;-81
2023/11/29 13:04:02;;;;;;;13.38;10.05;;;2.90;99.90;;;;;;5014945;28;20216;-79
2023/11/29 13:06:30;;;;;;;11.90;9.93;;;2.80;99.90;;;;;;5012972;28;20232;-78
2023/11/29 13:08:58;;;;;;;15.68;10.55;;;2.80;99.90;;;;;;5018260;28;20233;-79
2023/11/29 13:11:46;;;;;;;;;;;;;;;;;;;;;
2023/11/29 13:14:41;;;;;;;13.27;9.93;;;2.90;99.90;;;;;;5014480;28;20266;-78
2023/11/29 13:17:17;;;;;;;15.50;11.82;;;2.80;99.90;;;;;;5020218;28;20229;-79
2023/11/29 13:19:44;;;;;;;13.07;9.40;;;2.90;99.90;;;;;;5011514;28;20245;-79
2023/11/29 13:22:12;;;;;;;12.88;9.75;;;2.90;99.90;;;;;;5010209;28;20224;-78
2023/11/29 13:24:41;;;;;;;12.13;9.32;;;3.00;99.90;;;;;;5024041;28;20217;-77
2023/11/29 13:27:08;;;;;;;15.82;10.45;;;3.10;99.90;;;;;;5021107;28;20263;-79
2023/11/29 13:29:35;;;;;;;16.77;11.60;;;3.10;99.90;;;;;;5015703;28;20256;-78